sensor_id;sensor_type;location;lat;lon;timestamp;temperature;humidity
31735;DHT22;18313;48.518;9.124;2023-05-16T00:01:28;11.30;99.90
31735;DHT22;18313;48.518;9.124;2023-05-16T00:03:56;11.30;99.90
31735;DHT22;18313;48.518;9.124;2023-05-16T00:06:23;11.30;99.90
31735;DHT22;18313;48.518;9.124;2023-05-16T00:08:51;11.30;99.90
31735;DHT22;18313;48.518;9.124;2023-05-16T00:11:18;11.20;99.90
31735;DHT22;18313;48.518;9.124;2023-05-16T00:13:45;11.30;99.90
31735;DHT22;18313;48.518;9.124;2023-05-16T00:16:13;11.30;99.90
31735;DHT22;18313;48.518;9.124;2023-05-16T00:18:41;11.30;99.90
31735;DHT22;18313;48.518;9.124;2023-05-16T00:21:11;11.20;99.90
31735;DHT22;18313;48.518;9.124;2023-05-16T00:23:39;11.20;99.90
31735;DHT22;18313;48.518;9.124;2023-05-16T00:26:06;11.30;99.90
31735;DHT22;18313;48.518;9.124;2023-05-16T00:28:33;11.30;99.90
31735;DHT22;18313;48.518;9.124;2023-05-16T00:31:01;11.30;99.90
31735;DHT22;18313;48.518;9.124;2023-05-16T00:33:28;11.30;99.90
31735;DHT22;18313;48.518;9.124;2023-05-16T00:35:55;11.30;99.90
31735;DHT22;18313;48.518;9.124;2023-05-16T00:38:23;11.30;99.90
31735;DHT22;18313;48.518;9.124;2023-05-16T00:40:51;11.20;99.90
31735;DHT22;18313;48.518;9.124;2023-05-16T00:43:18;11.10;99.90
31735;DHT22;18313;48.518;9.124;2023-05-16T00:45:46;11.10;99.90
31735;DHT22;18313;48.518;9.124;2023-05-16T00:48:13;11.10;99.90
31735;DHT22;18313;48.518;9.124;2023-05-16T00:50:41;11.10;99.90
31735;DHT22;18313;48.518;9.124;2023-05-16T00:53:09;11.00;99.90
31735;DHT22;18313;48.518;9.124;2023-05-16T00:55:37;11.00;99.90
31735;DHT22;18313;48.518;9.124;2023-05-16T00:58:04;11.00;99.90
31735;DHT22;18313;48.518;9.124;2023-05-16T01:00:32;11.00;99.90
31735;DHT22;18313;48.518;9.124;2023-05-16T01:03:00;11.00;99.90
31735;DHT22;18313;48.518;9.124;2023-05-16T01:05:28;11.10;99.90
31735;DHT22;18313;48.518;9.124;2023-05-16T01:07:55;11.10;99.90
31735;DHT22;18313;48.518;9.124;2023-05-16T01:10:23;11.10;99.90
31735;DHT22;18313;48.518;9.124;2023-05-16T01:13:05;11.10;99.90
31735;DHT22;18313;48.518;9.124;2023-05-16T01:15:47;11.10;99.90
31735;DHT22;18313;48.518;9.124;2023-05-16T01:21:02;11.00;99.90
31735;DHT22;18313;48.518;9.124;2023-05-16T01:23:46;11.10;99.90
31735;DHT22;18313;48.518;9.124;2023-05-16T01:26:21;11.20;99.90
31735;DHT22;18313;48.518;9.124;2023-05-16T01:28:49;11.30;99.90
31735;DHT22;18313;48.518;9.124;2023-05-16T01:31:17;11.20;99.90
31735;DHT22;18313;48.518;9.124;2023-05-16T01:33:45;11.10;99.90
31735;DHT22;18313;48.518;9.124;2023-05-16T01:36:25;11.10;99.90
31735;DHT22;18313;48.518;9.124;2023-05-16T01:39:10;11.10;99.90
31735;DHT22;18313;48.518;9.124;2023-05-16T01:41:52;11.10;99.90
31735;DHT22;18313;48.518;9.124;2023-05-16T01:44:30;11.20;99.90
31735;DHT22;18313;48.518;9.124;2023-05-16T01:47:01;11.10;99.90
31735;DHT22;18313;48.518;9.124;2023-05-16T01:49:38;11.10;99.90
31735;DHT22;18313;48.518;9.124;2023-05-16T01:52:30;11.10;99.90
31735;DHT22;18313;48.518;9.124;2023-05-16T01:54:59;11.10;99.90
31735;DHT22;18313;48.518;9.124;2023-05-16T01:57:27;11.10;99.90
31735;DHT22;18313;48.518;9.124;2023-05-16T01:59:57;11.10;99.90
31735;DHT22;18313;48.518;9.124;2023-05-16T02:02:24;11.10;99.90
31735;DHT22;18313;48.518;9.124;2023-05-16T02:04:52;11.10;99.90
31735;DHT22;18313;48.518;9.124;2023-05-16T02:07:19;11.20;99.90
31735;DHT22;18313;48.518;9.124;2023-05-16T02:09:46;11.30;99.90
31735;DHT22;18313;48.518;9.124;2023-05-16T02:12:13;11.30;99.90
31735;DHT22;18313;48.518;9.124;2023-05-16T02:14:40;11.30;99.90
31735;DHT22;18313;48.518;9.124;2023-05-16T02:17:08;11.30;99.90
31735;DHT22;18313;48.518;9.124;2023-05-16T02:19:35;11.20;99.90
31735;DHT22;18313;48.518;9.124;2023-05-16T02:22:02;11.30;99.90
31735;DHT22;18313;48.518;9.124;2023-05-16T02:24:29;11.30;99.90
31735;DHT22;18313;48.518;9.124;2023-05-16T02:26:56;11.30;99.90
31735;DHT22;18313;48.518;9.124;2023-05-16T02:29:23;11.30;99.90
31735;DHT22;18313;48.518;9.124;2023-05-16T02:31:50;11.30;99.90
31735;DHT22;18313;48.518;9.124;2023-05-16T02:34:18;11.30;99.90
31735;DHT22;18313;48.518;9.124;2023-05-16T02:36:45;11.40;99.90
31735;DHT22;18313;48.518;9.124;2023-05-16T02:39:12;11.40;99.90
31735;DHT22;18313;48.518;9.124;2023-05-16T02:41:39;11.40;99.90
31735;DHT22;18313;48.518;9.124;2023-05-16T02:44:06;11.40;99.90
31735;DHT22;18313;48.518;9.124;2023-05-16T02:46:34;11.40;99.90
31735;DHT22;18313;48.518;9.124;2023-05-16T02:49:01;11.40;99.90
31735;DHT22;18313;48.518;9.124;2023-05-16T02:51:29;11.40;99.90
31735;DHT22;18313;48.518;9.124;2023-05-16T02:53:56;11.40;99.90
31735;DHT22;18313;48.518;9.124;2023-05-16T02:56:25;11.30;99.90
31735;DHT22;18313;48.518;9.124;2023-05-16T02:58:54;11.30;99.90
31735;DHT22;18313;48.518;9.124;2023-05-16T03:01:22;11.30;99.90
31735;DHT22;18313;48.518;9.124;2023-05-16T03:03:49;11.40;99.90
31735;DHT22;18313;48.518;9.124;2023-05-16T03:06:17;11.30;99.90
31735;DHT22;18313;48.518;9.124;2023-05-16T03:08:44;11.40;99.90
31735;DHT22;18313;48.518;9.124;2023-05-16T03:11:12;11.40;99.90
31735;DHT22;18313;48.518;9.124;2023-05-16T03:13:39;11.40;99.90
31735;DHT22;18313;48.518;9.124;2023-05-16T03:16:06;11.30;99.90
31735;DHT22;18313;48.518;9.124;2023-05-16T03:18:33;11.30;99.90
31735;DHT22;18313;48.518;9.124;2023-05-16T03:21:01;11.30;99.90
31735;DHT22;18313;48.518;9.124;2023-05-16T03:23:28;11.40;99.90
31735;DHT22;18313;48.518;9.124;2023-05-16T03:25:56;11.30;99.90
31735;DHT22;18313;48.518;9.124;2023-05-16T03:28:24;11.30;99.90
31735;DHT22;18313;48.518;9.124;2023-05-16T03:30:51;11.40;99.90
31735;DHT22;18313;48.518;9.124;2023-05-16T03:33:18;11.40;99.90
31735;DHT22;18313;48.518;9.124;2023-05-16T03:35:46;11.40;99.90
31735;DHT22;18313;48.518;9.124;2023-05-16T03:38:13;11.40;99.90
31735;DHT22;18313;48.518;9.124;2023-05-16T03:40:41;11.40;99.90
31735;DHT22;18313;48.518;9.124;2023-05-16T03:43:08;11.50;99.90
31735;DHT22;18313;48.518;9.124;2023-05-16T03:45:35;11.50;99.90
31735;DHT22;18313;48.518;9.124;2023-05-16T03:48:03;11.40;99.90
31735;DHT22;18313;48.518;9.124;2023-05-16T03:50:30;11.40;99.90
31735;DHT22;18313;48.518;9.124;2023-05-16T03:52:57;11.40;99.90
31735;DHT22;18313;48.518;9.124;2023-05-16T03:55:25;11.50;99.90
31735;DHT22;18313;48.518;9.124;2023-05-16T03:57:52;11.40;99.90
31735;DHT22;18313;48.518;9.124;2023-05-16T04:00:19;11.40;99.90
31735;DHT22;18313;48.518;9.124;2023-05-16T04:02:47;11.40;99.90
31735;DHT22;18313;48.518;9.124;2023-05-16T04:05:14;11.30;99.90
31735;DHT22;18313;48.518;9.124;2023-05-16T04:07:42;11.30;99.90
31735;DHT22;18313;48.518;9.124;2023-05-16T04:10:10;11.30;99.90
31735;DHT22;18313;48.518;9.124;2023-05-16T04:12:37;11.30;99.90
31735;DHT22;18313;48.518;9.124;2023-05-16T04:15:05;11.40;99.90
31735;DHT22;18313;48.518;9.124;2023-05-16T04:17:33;11.40;99.90
31735;DHT22;18313;48.518;9.124;2023-05-16T04:20:00;11.40;99.90
31735;DHT22;18313;48.518;9.124;2023-05-16T04:22:28;11.40;99.90
31735;DHT22;18313;48.518;9.124;2023-05-16T04:24:55;11.40;99.90
31735;DHT22;18313;48.518;9.124;2023-05-16T04:27:23;11.50;99.90
31735;DHT22;18313;48.518;9.124;2023-05-16T04:29:50;11.50;99.90
31735;DHT22;18313;48.518;9.124;2023-05-16T04:32:17;11.50;99.90
31735;DHT22;18313;48.518;9.124;2023-05-16T04:34:45;11.60;99.90
31735;DHT22;18313;48.518;9.124;2023-05-16T04:37:14;11.60;99.90
31735;DHT22;18313;48.518;9.124;2023-05-16T04:39:41;11.70;99.90
31735;DHT22;18313;48.518;9.124;2023-05-16T04:42:08;11.70;99.90
31735;DHT22;18313;48.518;9.124;2023-05-16T04:44:35;11.70;99.90
31735;DHT22;18313;48.518;9.124;2023-05-16T04:47:03;11.80;99.90
31735;DHT22;18313;48.518;9.124;2023-05-16T04:49:31;11.80;99.90
31735;DHT22;18313;48.518;9.124;2023-05-16T04:51:58;11.80;99.90
31735;DHT22;18313;48.518;9.124;2023-05-16T04:54:25;11.90;99.90
31735;DHT22;18313;48.518;9.124;2023-05-16T04:56:53;11.90;99.90
31735;DHT22;18313;48.518;9.124;2023-05-16T04:59:20;12.00;99.90
31735;DHT22;18313;48.518;9.124;2023-05-16T05:01:47;12.00;99.90
31735;DHT22;18313;48.518;9.124;2023-05-16T05:04:14;12.00;99.90
31735;DHT22;18313;48.518;9.124;2023-05-16T05:06:43;12.00;99.90
31735;DHT22;18313;48.518;9.124;2023-05-16T05:09:10;12.00;99.90
31735;DHT22;18313;48.518;9.124;2023-05-16T05:11:38;12.00;99.90
31735;DHT22;18313;48.518;9.124;2023-05-16T05:14:05;12.00;99.90
31735;DHT22;18313;48.518;9.124;2023-05-16T05:16:32;12.10;99.90
31735;DHT22;18313;48.518;9.124;2023-05-16T05:19:00;12.10;99.90
31735;DHT22;18313;48.518;9.124;2023-05-16T05:21:29;12.20;99.90
31735;DHT22;18313;48.518;9.124;2023-05-16T05:23:56;12.20;99.90
31735;DHT22;18313;48.518;9.124;2023-05-16T05:26:24;12.30;99.90
31735;DHT22;18313;48.518;9.124;2023-05-16T05:28:52;12.30;99.90
31735;DHT22;18313;48.518;9.124;2023-05-16T05:31:30;12.20;99.90
31735;DHT22;18313;48.518;9.124;2023-05-16T05:33:59;12.20;99.90
31735;DHT22;18313;48.518;9.124;2023-05-16T05:36:27;12.10;99.90
31735;DHT22;18313;48.518;9.124;2023-05-16T05:38:54;12.20;99.90
31735;DHT22;18313;48.518;9.124;2023-05-16T05:41:22;12.10;99.90
31735;DHT22;18313;48.518;9.124;2023-05-16T05:43:49;12.10;99.90
31735;DHT22;18313;48.518;9.124;2023-05-16T05:46:17;12.20;99.90
31735;DHT22;18313;48.518;9.124;2023-05-16T05:48:44;12.20;99.90
31735;DHT22;18313;48.518;9.124;2023-05-16T05:51:11;12.20;99.90
31735;DHT22;18313;48.518;9.124;2023-05-16T05:53:40;12.20;99.90
31735;DHT22;18313;48.518;9.124;2023-05-16T05:56:08;12.30;99.90
31735;DHT22;18313;48.518;9.124;2023-05-16T05:58:36;12.20;99.90
31735;DHT22;18313;48.518;9.124;2023-05-16T06:01:03;12.30;99.90
31735;DHT22;18313;48.518;9.124;2023-05-16T06:03:30;12.30;99.90
31735;DHT22;18313;48.518;9.124;2023-05-16T06:05:58;12.30;99.90
31735;DHT22;18313;48.518;9.124;2023-05-16T06:08:25;12.30;99.90
31735;DHT22;18313;48.518;9.124;2023-05-16T06:10:52;12.30;99.90
31735;DHT22;18313;48.518;9.124;2023-05-16T06:13:20;12.20;99.90
31735;DHT22;18313;48.518;9.124;2023-05-16T06:15:53;12.20;99.90
31735;DHT22;18313;48.518;9.124;2023-05-16T06:18:20;12.30;99.90
31735;DHT22;18313;48.518;9.124;2023-05-16T06:20:48;12.30;99.90
31735;DHT22;18313;48.518;9.124;2023-05-16T06:23:15;12.30;99.90
31735;DHT22;18313;48.518;9.124;2023-05-16T06:25:43;12.20;99.90
31735;DHT22;18313;48.518;9.124;2023-05-16T06:28:10;12.20;99.90
31735;DHT22;18313;48.518;9.124;2023-05-16T06:30:37;12.20;99.90
31735;DHT22;18313;48.518;9.124;2023-05-16T06:33:05;12.20;99.90
31735;DHT22;18313;48.518;9.124;2023-05-16T06:35:32;12.30;99.90
31735;DHT22;18313;48.518;9.124;2023-05-16T06:37:59;12.20;99.90
31735;DHT22;18313;48.518;9.124;2023-05-16T06:40:27;12.20;99.90
31735;DHT22;18313;48.518;9.124;2023-05-16T06:42:54;12.20;99.90
31735;DHT22;18313;48.518;9.124;2023-05-16T06:45:21;12.20;99.90
31735;DHT22;18313;48.518;9.124;2023-05-16T06:47:49;12.30;99.90
31735;DHT22;18313;48.518;9.124;2023-05-16T06:50:16;12.20;99.90
31735;DHT22;18313;48.518;9.124;2023-05-16T06:52:43;12.30;99.90
31735;DHT22;18313;48.518;9.124;2023-05-16T06:55:10;12.30;99.90
31735;DHT22;18313;48.518;9.124;2023-05-16T06:57:38;12.20;99.90
31735;DHT22;18313;48.518;9.124;2023-05-16T07:00:06;12.30;99.90
31735;DHT22;18313;48.518;9.124;2023-05-16T07:02:34;12.30;99.90
31735;DHT22;18313;48.518;9.124;2023-05-16T07:05:01;12.30;99.90
31735;DHT22;18313;48.518;9.124;2023-05-16T07:07:29;12.30;99.90
31735;DHT22;18313;48.518;9.124;2023-05-16T07:09:56;12.30;99.90
31735;DHT22;18313;48.518;9.124;2023-05-16T07:12:23;12.20;99.90
31735;DHT22;18313;48.518;9.124;2023-05-16T07:14:50;12.20;99.90
31735;DHT22;18313;48.518;9.124;2023-05-16T07:17:17;12.20;99.90
31735;DHT22;18313;48.518;9.124;2023-05-16T07:19:45;12.20;99.90
31735;DHT22;18313;48.518;9.124;2023-05-16T07:22:12;12.20;99.90
31735;DHT22;18313;48.518;9.124;2023-05-16T07:24:39;12.30;99.90
31735;DHT22;18313;48.518;9.124;2023-05-16T07:27:06;12.40;99.90
31735;DHT22;18313;48.518;9.124;2023-05-16T07:29:34;12.30;99.90
31735;DHT22;18313;48.518;9.124;2023-05-16T07:32:03;12.30;99.90
31735;DHT22;18313;48.518;9.124;2023-05-16T07:34:31;12.20;99.90
31735;DHT22;18313;48.518;9.124;2023-05-16T07:36:58;12.20;99.90
31735;DHT22;18313;48.518;9.124;2023-05-16T07:39:26;12.20;99.90
31735;DHT22;18313;48.518;9.124;2023-05-16T07:41:53;12.20;99.90
31735;DHT22;18313;48.518;9.124;2023-05-16T07:44:21;12.10;99.90
31735;DHT22;18313;48.518;9.124;2023-05-16T07:46:48;12.00;99.90
31735;DHT22;18313;48.518;9.124;2023-05-16T07:49:16;12.10;99.90
31735;DHT22;18313;48.518;9.124;2023-05-16T07:51:43;12.10;99.90
31735;DHT22;18313;48.518;9.124;2023-05-16T07:54:11;12.10;99.90
31735;DHT22;18313;48.518;9.124;2023-05-16T07:56:38;12.10;99.90
31735;DHT22;18313;48.518;9.124;2023-05-16T07:59:06;12.10;99.90
31735;DHT22;18313;48.518;9.124;2023-05-16T08:01:33;12.10;99.90
31735;DHT22;18313;48.518;9.124;2023-05-16T08:04:00;12.10;99.90
31735;DHT22;18313;48.518;9.124;2023-05-16T08:06:28;12.10;99.90
31735;DHT22;18313;48.518;9.124;2023-05-16T08:08:55;12.10;99.90
31735;DHT22;18313;48.518;9.124;2023-05-16T08:11:23;12.10;99.90
31735;DHT22;18313;48.518;9.124;2023-05-16T08:13:50;12.00;99.90
31735;DHT22;18313;48.518;9.124;2023-05-16T08:16:17;12.00;99.90
31735;DHT22;18313;48.518;9.124;2023-05-16T08:18:45;12.10;99.90
31735;DHT22;18313;48.518;9.124;2023-05-16T08:21:12;12.10;99.90
31735;DHT22;18313;48.518;9.124;2023-05-16T08:23:40;12.00;99.90
31735;DHT22;18313;48.518;9.124;2023-05-16T08:26:07;12.10;99.90
31735;DHT22;18313;48.518;9.124;2023-05-16T08:28:34;12.10;99.90
31735;DHT22;18313;48.518;9.124;2023-05-16T08:31:02;12.20;99.90
31735;DHT22;18313;48.518;9.124;2023-05-16T08:33:29;12.10;99.90
31735;DHT22;18313;48.518;9.124;2023-05-16T08:35:57;12.00;99.90
31735;DHT22;18313;48.518;9.124;2023-05-16T08:38:24;12.00;99.90
31735;DHT22;18313;48.518;9.124;2023-05-16T08:40:51;12.10;99.90
31735;DHT22;18313;48.518;9.124;2023-05-16T08:43:19;12.10;99.90
31735;DHT22;18313;48.518;9.124;2023-05-16T08:45:46;12.10;99.90
31735;DHT22;18313;48.518;9.124;2023-05-16T08:48:14;12.10;99.90
31735;DHT22;18313;48.518;9.124;2023-05-16T08:50:43;12.10;99.90
31735;DHT22;18313;48.518;9.124;2023-05-16T08:53:11;12.10;99.90
31735;DHT22;18313;48.518;9.124;2023-05-16T08:55:41;12.10;99.90
31735;DHT22;18313;48.518;9.124;2023-05-16T08:58:08;12.10;99.90
31735;DHT22;18313;48.518;9.124;2023-05-16T09:00:36;12.10;99.90
31735;DHT22;18313;48.518;9.124;2023-05-16T09:03:04;12.20;99.90
31735;DHT22;18313;48.518;9.124;2023-05-16T09:05:32;12.20;99.90
31735;DHT22;18313;48.518;9.124;2023-05-16T09:07:59;12.20;99.90
31735;DHT22;18313;48.518;9.124;2023-05-16T09:10:27;12.20;99.90
31735;DHT22;18313;48.518;9.124;2023-05-16T09:12:54;12.20;99.90
31735;DHT22;18313;48.518;9.124;2023-05-16T09:15:21;12.20;99.90
31735;DHT22;18313;48.518;9.124;2023-05-16T09:17:48;12.10;99.90
31735;DHT22;18313;48.518;9.124;2023-05-16T09:20:18;12.20;99.90
31735;DHT22;18313;48.518;9.124;2023-05-16T09:22:56;12.10;99.90
31735;DHT22;18313;48.518;9.124;2023-05-16T09:25:26;12.20;99.90
31735;DHT22;18313;48.518;9.124;2023-05-16T09:28:01;12.10;99.90
31735;DHT22;18313;48.518;9.124;2023-05-16T09:30:31;12.10;99.90
31735;DHT22;18313;48.518;9.124;2023-05-16T09:33:00;12.20;99.90
31735;DHT22;18313;48.518;9.124;2023-05-16T09:35:30;12.10;99.90
31735;DHT22;18313;48.518;9.124;2023-05-16T09:38:15;12.10;99.90
31735;DHT22;18313;48.518;9.124;2023-05-16T09:40:44;12.10;99.90
31735;DHT22;18313;48.518;9.124;2023-05-16T09:43:14;12.10;99.90
31735;DHT22;18313;48.518;9.124;2023-05-16T09:45:47;12.00;99.90
31735;DHT22;18313;48.518;9.124;2023-05-16T09:48:15;12.00;99.90
31735;DHT22;18313;48.518;9.124;2023-05-16T09:50:50;12.00;99.90
31735;DHT22;18313;48.518;9.124;2023-05-16T09:53:45;12.10;99.90
31735;DHT22;18313;48.518;9.124;2023-05-16T09:56:14;12.10;99.90
31735;DHT22;18313;48.518;9.124;2023-05-16T09:58:43;12.00;99.90
31735;DHT22;18313;48.518;9.124;2023-05-16T10:01:11;12.00;99.90
31735;DHT22;18313;48.518;9.124;2023-05-16T10:03:40;12.00;99.90
31735;DHT22;18313;48.518;9.124;2023-05-16T10:06:09;11.90;99.90
31735;DHT22;18313;48.518;9.124;2023-05-16T10:08:41;11.90;99.90
31735;DHT22;18313;48.518;9.124;2023-05-16T10:11:09;12.00;99.90
31735;DHT22;18313;48.518;9.124;2023-05-16T10:13:37;12.00;99.90
31735;DHT22;18313;48.518;9.124;2023-05-16T10:16:11;12.00;99.90
31735;DHT22;18313;48.518;9.124;2023-05-16T10:18:40;12.10;99.90
31735;DHT22;18313;48.518;9.124;2023-05-16T10:21:16;12.20;99.90
31735;DHT22;18313;48.518;9.124;2023-05-16T10:23:47;12.20;99.90
31735;DHT22;18313;48.518;9.124;2023-05-16T10:26:16;12.20;99.90
31735;DHT22;18313;48.518;9.124;2023-05-16T10:28:44;12.30;99.90
31735;DHT22;18313;48.518;9.124;2023-05-16T10:31:11;12.40;99.90
31735;DHT22;18313;48.518;9.124;2023-05-16T10:33:40;12.50;99.90
31735;DHT22;18313;48.518;9.124;2023-05-16T10:36:13;12.50;99.90
31735;DHT22;18313;48.518;9.124;2023-05-16T10:38:42;12.50;99.90
31735;DHT22;18313;48.518;9.124;2023-05-16T10:41:10;12.60;99.90
31735;DHT22;18313;48.518;9.124;2023-05-16T10:43:38;12.70;99.90
31735;DHT22;18313;48.518;9.124;2023-05-16T10:46:07;12.70;99.90
31735;DHT22;18313;48.518;9.124;2023-05-16T10:48:39;12.60;99.90
31735;DHT22;18313;48.518;9.124;2023-05-16T10:53:53;12.70;99.90
31735;DHT22;18313;48.518;9.124;2023-05-16T10:56:22;12.70;99.90
31735;DHT22;18313;48.518;9.124;2023-05-16T10:58:52;12.80;99.90
31735;DHT22;18313;48.518;9.124;2023-05-16T11:11:59;12.50;99.90
31735;DHT22;18313;48.518;9.124;2023-05-16T11:17:14;12.50;99.90
31735;DHT22;18313;48.518;9.124;2023-05-16T11:24:54;12.60;99.90
31735;DHT22;18313;48.518;9.124;2023-05-16T11:27:32;12.60;99.90
31735;DHT22;18313;48.518;9.124;2023-05-16T11:30:13;12.60;99.90
31735;DHT22;18313;48.518;9.124;2023-05-16T11:32:46;12.60;99.90
31735;DHT22;18313;48.518;9.124;2023-05-16T11:35:15;12.70;99.90
31735;DHT22;18313;48.518;9.124;2023-05-16T11:37:46;12.70;99.90
31735;DHT22;18313;48.518;9.124;2023-05-16T11:40:14;12.70;99.90
31735;DHT22;18313;48.518;9.124;2023-05-16T11:42:47;12.80;99.90
31735;DHT22;18313;48.518;9.124;2023-05-16T11:45:18;12.70;99.90
31735;DHT22;18313;48.518;9.124;2023-05-16T11:47:47;12.80;99.90
31735;DHT22;18313;48.518;9.124;2023-05-16T11:50:19;12.70;99.90
31735;DHT22;18313;48.518;9.124;2023-05-16T11:52:49;12.70;99.90
31735;DHT22;18313;48.518;9.124;2023-05-16T11:55:21;12.70;99.90
31735;DHT22;18313;48.518;9.124;2023-05-16T11:58:06;12.60;99.90
31735;DHT22;18313;48.518;9.124;2023-05-16T12:00:34;12.60;99.90
31735;DHT22;18313;48.518;9.124;2023-05-16T12:03:02;12.60;99.90
31735;DHT22;18313;48.518;9.124;2023-05-16T12:05:30;12.50;99.90
31735;DHT22;18313;48.518;9.124;2023-05-16T12:07:59;12.40;99.90
31735;DHT22;18313;48.518;9.124;2023-05-16T12:10:27;12.20;99.90
31735;DHT22;18313;48.518;9.124;2023-05-16T12:12:57;12.20;99.90
31735;DHT22;18313;48.518;9.124;2023-05-16T12:15:25;12.00;99.90
31735;DHT22;18313;48.518;9.124;2023-05-16T12:17:53;11.90;99.90
31735;DHT22;18313;48.518;9.124;2023-05-16T12:20:20;11.80;99.90
31735;DHT22;18313;48.518;9.124;2023-05-16T12:22:48;11.80;99.90
31735;DHT22;18313;48.518;9.124;2023-05-16T12:25:26;11.80;99.90
31735;DHT22;18313;48.518;9.124;2023-05-16T12:27:57;11.80;99.90
31735;DHT22;18313;48.518;9.124;2023-05-16T12:30:26;11.70;99.90
31735;DHT22;18313;48.518;9.124;2023-05-16T12:32:58;11.60;99.90
31735;DHT22;18313;48.518;9.124;2023-05-16T12:35:30;11.50;99.90
31735;DHT22;18313;48.518;9.124;2023-05-16T12:37:58;11.50;99.90
31735;DHT22;18313;48.518;9.124;2023-05-16T12:40:29;11.50;99.90
31735;DHT22;18313;48.518;9.124;2023-05-16T12:42:57;11.50;99.90
31735;DHT22;18313;48.518;9.124;2023-05-16T12:45:26;11.60;99.90
31735;DHT22;18313;48.518;9.124;2023-05-16T12:47:54;11.70;99.90
31735;DHT22;18313;48.518;9.124;2023-05-16T12:50:21;11.60;99.90
31735;DHT22;18313;48.518;9.124;2023-05-16T12:52:53;11.60;99.90
31735;DHT22;18313;48.518;9.124;2023-05-16T12:55:21;11.70;99.90
31735;DHT22;18313;48.518;9.124;2023-05-16T12:57:49;11.70;99.90
31735;DHT22;18313;48.518;9.124;2023-05-16T13:00:18;11.70;99.90
31735;DHT22;18313;48.518;9.124;2023-05-16T13:02:46;11.70;99.90
31735;DHT22;18313;48.518;9.124;2023-05-16T13:05:15;11.70;99.90
31735;DHT22;18313;48.518;9.124;2023-05-16T13:07:43;11.60;99.90
31735;DHT22;18313;48.518;9.124;2023-05-16T13:10:11;11.60;99.90
31735;DHT22;18313;48.518;9.124;2023-05-16T13:12:39;11.80;99.90
31735;DHT22;18313;48.518;9.124;2023-05-16T13:15:08;11.70;99.90
31735;DHT22;18313;48.518;9.124;2023-05-16T13:17:37;11.70;99.90
31735;DHT22;18313;48.518;9.124;2023-05-16T13:20:06;11.70;99.90
31735;DHT22;18313;48.518;9.124;2023-05-16T13:22:41;11.70;99.90
31735;DHT22;18313;48.518;9.124;2023-05-16T13:25:10;11.60;99.90
31735;DHT22;18313;48.518;9.124;2023-05-16T13:27:37;11.70;99.90
31735;DHT22;18313;48.518;9.124;2023-05-16T13:30:05;11.70;99.90
31735;DHT22;18313;48.518;9.124;2023-05-16T13:32:33;11.80;99.90
31735;DHT22;18313;48.518;9.124;2023-05-16T13:35:01;11.90;99.90
31735;DHT22;18313;48.518;9.124;2023-05-16T13:37:30;11.90;99.90
31735;DHT22;18313;48.518;9.124;2023-05-16T13:39:58;12.00;99.90
31735;DHT22;18313;48.518;9.124;2023-05-16T13:42:26;12.00;99.90
31735;DHT22;18313;48.518;9.124;2023-05-16T13:44:53;12.00;99.90
31735;DHT22;18313;48.518;9.124;2023-05-16T13:47:21;11.90;99.90
31735;DHT22;18313;48.518;9.124;2023-05-16T13:49:48;11.90;99.90
31735;DHT22;18313;48.518;9.124;2023-05-16T13:52:15;11.80;99.90
31735;DHT22;18313;48.518;9.124;2023-05-16T13:54:42;11.70;99.90
31735;DHT22;18313;48.518;9.124;2023-05-16T13:57:10;11.50;99.90
31735;DHT22;18313;48.518;9.124;2023-05-16T13:59:37;11.30;99.90
31735;DHT22;18313;48.518;9.124;2023-05-16T14:02:25;11.20;99.90
31735;DHT22;18313;48.518;9.124;2023-05-16T14:04:52;11.20;99.90
31735;DHT22;18313;48.518;9.124;2023-05-16T14:07:20;11.20;99.90
31735;DHT22;18313;48.518;9.124;2023-05-16T14:09:47;11.00;99.90
31735;DHT22;18313;48.518;9.124;2023-05-16T14:12:14;11.00;99.90
31735;DHT22;18313;48.518;9.124;2023-05-16T14:14:41;10.90;99.90
31735;DHT22;18313;48.518;9.124;2023-05-16T14:17:09;10.90;99.90
31735;DHT22;18313;48.518;9.124;2023-05-16T14:19:36;10.90;99.90
31735;DHT22;18313;48.518;9.124;2023-05-16T14:22:03;10.90;99.90
31735;DHT22;18313;48.518;9.124;2023-05-16T14:24:31;10.90;99.90
31735;DHT22;18313;48.518;9.124;2023-05-16T14:26:59;11.00;99.90
31735;DHT22;18313;48.518;9.124;2023-05-16T14:29:27;11.00;99.90
31735;DHT22;18313;48.518;9.124;2023-05-16T14:31:55;11.10;99.90
31735;DHT22;18313;48.518;9.124;2023-05-16T14:34:23;11.10;99.90
31735;DHT22;18313;48.518;9.124;2023-05-16T14:36:51;11.10;99.90
31735;DHT22;18313;48.518;9.124;2023-05-16T14:39:18;11.10;99.90
31735;DHT22;18313;48.518;9.124;2023-05-16T14:41:45;11.10;99.90
31735;DHT22;18313;48.518;9.124;2023-05-16T14:44:12;11.10;99.90
31735;DHT22;18313;48.518;9.124;2023-05-16T14:46:40;11.20;99.90
31735;DHT22;18313;48.518;9.124;2023-05-16T14:49:08;11.20;99.90
31735;DHT22;18313;48.518;9.124;2023-05-16T14:51:36;11.20;99.90
31735;DHT22;18313;48.518;9.124;2023-05-16T14:54:04;11.20;99.90
31735;DHT22;18313;48.518;9.124;2023-05-16T14:56:31;11.20;99.90
31735;DHT22;18313;48.518;9.124;2023-05-16T14:58:59;11.20;99.90
31735;DHT22;18313;48.518;9.124;2023-05-16T15:01:27;11.10;99.90
31735;DHT22;18313;48.518;9.124;2023-05-16T15:03:54;11.10;99.90
31735;DHT22;18313;48.518;9.124;2023-05-16T15:06:23;11.10;99.90
31735;DHT22;18313;48.518;9.124;2023-05-16T15:08:51;11.20;99.90
31735;DHT22;18313;48.518;9.124;2023-05-16T15:11:18;11.20;99.90
31735;DHT22;18313;48.518;9.124;2023-05-16T15:13:45;11.20;99.90
31735;DHT22;18313;48.518;9.124;2023-05-16T15:16:14;11.20;99.90
31735;DHT22;18313;48.518;9.124;2023-05-16T15:18:42;11.10;99.90
31735;DHT22;18313;48.518;9.124;2023-05-16T15:21:09;11.10;99.90
31735;DHT22;18313;48.518;9.124;2023-05-16T15:23:36;11.10;99.90
31735;DHT22;18313;48.518;9.124;2023-05-16T15:26:04;11.20;99.90
31735;DHT22;18313;48.518;9.124;2023-05-16T15:28:32;11.20;99.90
31735;DHT22;18313;48.518;9.124;2023-05-16T15:30:59;11.30;99.90
31735;DHT22;18313;48.518;9.124;2023-05-16T15:33:27;11.30;99.90
31735;DHT22;18313;48.518;9.124;2023-05-16T15:35:54;11.30;99.90
31735;DHT22;18313;48.518;9.124;2023-05-16T15:38:21;11.30;99.90
31735;DHT22;18313;48.518;9.124;2023-05-16T15:40:48;11.30;99.90
31735;DHT22;18313;48.518;9.124;2023-05-16T15:43:27;11.40;99.90
31735;DHT22;18313;48.518;9.124;2023-05-16T15:45:54;11.50;99.90
31735;DHT22;18313;48.518;9.124;2023-05-16T15:48:22;11.50;99.90
31735;DHT22;18313;48.518;9.124;2023-05-16T15:50:49;11.70;99.90
31735;DHT22;18313;48.518;9.124;2023-05-16T15:53:16;11.80;99.90
31735;DHT22;18313;48.518;9.124;2023-05-16T15:55:43;11.70;99.90
31735;DHT22;18313;48.518;9.124;2023-05-16T15:58:10;11.70;99.90
31735;DHT22;18313;48.518;9.124;2023-05-16T16:00:38;11.70;99.90
31735;DHT22;18313;48.518;9.124;2023-05-16T16:03:06;11.70;99.90